createdAt,value
2018-08-28T00:00:50.702Z,25.50
2018-08-28T00:03:32.231Z,25.40
2018-08-28T00:06:12.734Z,25.40
2018-08-28T00:08:53.409Z,25.40
2018-08-28T00:11:35.151Z,25.40
2018-08-28T00:14:16.569Z,25.40
2018-08-28T00:16:57.300Z,25.30
2018-08-28T00:19:38.242Z,25.20
2018-08-28T00:22:19.780Z,25.20
2018-08-28T00:25:00.317Z,25.20
2018-08-28T00:27:41.237Z,25.20
2018-08-28T00:30:22.702Z,25.20
2018-08-28T00:33:04.152Z,25.10
2018-08-28T00:35:45.342Z,25.10
2018-08-28T00:38:26.205Z,25.00
2018-08-28T00:41:06.838Z,25.00
2018-08-28T00:43:47.425Z,25.00
2018-08-28T00:46:27.966Z,25.00
2018-08-28T00:49:08.798Z,24.90
2018-08-28T00:51:49.331Z,24.90
2018-08-28T00:54:29.993Z,25.00
2018-08-28T00:57:10.530Z,24.90
2018-08-28T00:59:51.127Z,24.90
2018-08-28T01:02:31.684Z,24.90
2018-08-28T01:05:13.163Z,24.90
2018-08-28T01:07:54.377Z,24.80
2018-08-28T01:10:35.485Z,24.80
2018-08-28T01:13:16.908Z,24.80
2018-08-28T01:15:57.445Z,24.70
2018-08-28T01:18:37.983Z,24.70
2018-08-28T01:21:18.596Z,24.70
2018-08-28T01:23:59.313Z,24.60
2018-08-28T01:26:39.822Z,24.60
2018-08-28T01:29:20.424Z,24.60
2018-08-28T01:32:01.248Z,24.60
2018-08-28T01:34:42.722Z,24.60
2018-08-28T01:37:23.786Z,24.60
2018-08-28T01:40:04.644Z,24.60
2018-08-28T01:42:45.231Z,24.50
2018-08-28T01:45:25.944Z,24.50
2018-08-28T01:48:07.485Z,24.50
2018-08-28T01:50:49.113Z,24.50
2018-08-28T01:53:29.901Z,24.40
2018-08-28T01:56:11.360Z,24.40
2018-08-28T01:58:52.093Z,24.40
2018-08-28T02:01:33.605Z,24.40
2018-08-28T02:04:15.099Z,24.40
2018-08-28T02:06:56.563Z,24.40
2018-08-28T02:09:37.173Z,24.40
2018-08-28T02:12:18.721Z,24.50
2018-08-28T02:15:00.224Z,24.40
2018-08-28T02:17:41.690Z,24.40
2018-08-28T02:20:22.350Z,24.40
2018-08-28T02:23:03.897Z,24.40
2018-08-28T02:25:45.441Z,24.40
2018-08-28T02:28:26.121Z,24.50
2018-08-28T02:31:06.671Z,24.50
2018-08-28T02:33:47.617Z,24.50
2018-08-28T02:36:28.154Z,24.60
2018-08-28T02:39:10.025Z,24.60
2018-08-28T02:41:51.226Z,24.60
2018-08-28T02:44:31.828Z,24.60
2018-08-28T02:47:13.291Z,24.60
2018-08-28T02:49:53.837Z,24.60
2018-08-28T02:52:34.332Z,24.60
2018-08-28T02:55:15.034Z,24.70
2018-08-28T02:57:55.533Z,24.70
2018-08-28T03:00:36.249Z,24.70
2018-08-28T03:03:16.885Z,24.70
2018-08-28T03:05:57.373Z,24.70
2018-08-28T03:08:37.968Z,24.70
2018-08-28T03:11:18.641Z,24.80
2018-08-28T03:13:59.300Z,24.80
2018-08-28T03:16:39.814Z,24.80
2018-08-28T03:19:21.134Z,24.80
2018-08-28T03:22:02.097Z,24.80
2018-08-28T03:24:43.483Z,24.80
2018-08-28T03:27:24.215Z,24.80
2018-08-28T03:30:05.790Z,24.80
2018-08-28T03:32:46.417Z,24.90
2018-08-28T03:35:28.009Z,24.90
2018-08-28T03:38:09.558Z,24.90
2018-08-28T03:40:50.106Z,24.90
2018-08-28T03:43:30.641Z,24.90
2018-08-28T03:46:11.317Z,25.00
2018-08-28T03:48:51.870Z,25.00
2018-08-28T03:51:33.306Z,25.00
2018-08-28T03:54:13.909Z,25.00
2018-08-28T03:56:54.475Z,25.00
2018-08-28T03:59:35.285Z,25.00
2018-08-28T04:02:16.726Z,25.00
2018-08-28T04:04:57.462Z,25.00
2018-08-28T04:07:38.162Z,25.00
2018-08-28T04:10:19.661Z,25.00
2018-08-28T04:13:00.168Z,25.00
2018-08-28T04:15:40.761Z,25.00
2018-08-28T04:18:22.268Z,25.00
2018-08-28T04:21:03.381Z,24.90
2018-08-28T04:23:44.506Z,24.90
2018-08-28T04:26:26.189Z,24.90
2018-08-28T04:29:07.489Z,24.90
2018-08-28T04:31:48.713Z,24.90
2018-08-28T04:34:29.733Z,24.90
2018-08-28T04:37:11.402Z,24.90
2018-08-28T04:39:52.837Z,24.90
2018-08-28T04:42:34.260Z,24.90
2018-08-28T04:45:14.966Z,24.90
2018-08-28T04:47:56.477Z,24.90
2018-08-28T04:50:38.153Z,24.90
2018-08-28T04:53:20.284Z,24.90
2018-08-28T04:56:01.132Z,24.90
2018-08-28T04:58:41.765Z,24.90
2018-08-28T05:01:22.374Z,24.90
2018-08-28T05:04:02.992Z,24.90
2018-08-28T05:06:43.580Z,24.90
2018-08-28T05:09:24.918Z,24.90
2018-08-28T05:12:05.617Z,24.80
2018-08-28T05:14:46.136Z,24.80
2018-08-28T05:17:26.631Z,24.80
2018-08-28T05:20:07.285Z,24.80
2018-08-28T05:22:48.767Z,24.80
2018-08-28T05:25:29.422Z,24.80
2018-08-28T05:28:10.135Z,24.80
2018-08-28T05:30:50.800Z,24.90
2018-08-28T05:33:31.413Z,24.90
2018-08-28T05:36:12.976Z,24.90
2018-08-28T05:38:54.601Z,25.00
2018-08-28T05:41:36.177Z,25.10
2018-08-28T05:44:17.494Z,25.10
2018-08-28T05:46:59.014Z,25.20
2018-08-28T05:49:40.593Z,25.40
2018-08-28T05:52:22.085Z,25.40
2018-08-28T05:55:02.629Z,25.60
2018-08-28T05:57:43.155Z,25.70
2018-08-28T06:00:23.923Z,25.80
2018-08-28T06:03:04.703Z,25.80
2018-08-28T06:05:46.260Z,25.90
2018-08-28T06:08:27.714Z,26.00
2018-08-28T06:11:08.442Z,26.00
2018-08-28T06:13:49.562Z,26.10
2018-08-28T06:16:30.722Z,26.10
2018-08-28T06:19:12.141Z,26.30
2018-08-28T06:21:53.630Z,26.50
2018-08-28T06:24:35.018Z,26.70
2018-08-28T06:27:15.659Z,27.00
2018-08-28T06:29:56.240Z,27.30
2018-08-28T06:32:37.756Z,27.50
2018-08-28T06:35:18.529Z,27.60
2018-08-28T06:37:59.964Z,27.70
2018-08-28T06:40:40.628Z,27.70
2018-08-28T06:43:21.256Z,27.70
2018-08-28T06:46:02.346Z,27.80
2018-08-28T06:48:43.662Z,27.80
2018-08-28T06:51:24.956Z,28.00
2018-08-28T06:54:05.474Z,28.10
2018-08-28T06:56:46.053Z,28.30
2018-08-28T06:59:26.733Z,28.60
2018-08-28T07:02:08.118Z,28.80
2018-08-28T07:04:48.715Z,29.00
2018-08-28T07:07:30.117Z,29.10
2018-08-28T07:10:10.833Z,29.20
2018-08-28T07:12:52.532Z,29.30
2018-08-28T07:15:34.068Z,29.40
2018-08-28T07:18:15.567Z,29.40
2018-08-28T07:20:56.265Z,29.50
2018-08-28T07:23:36.964Z,29.40
2018-08-28T07:26:18.538Z,29.40
2018-08-28T07:28:59.091Z,29.40
2018-08-28T07:31:40.552Z,29.50
2018-08-28T07:34:21.137Z,29.50
2018-08-28T07:37:01.659Z,29.50
2018-08-28T07:39:42.214Z,29.50
2018-08-28T07:42:23.085Z,29.30
2018-08-28T07:45:04.347Z,29.10
2018-08-28T07:47:44.909Z,29.10
2018-08-28T07:50:25.514Z,29.20
2018-08-28T07:53:07.161Z,29.30
2018-08-28T07:55:48.567Z,29.50
2018-08-28T07:58:29.315Z,29.70
2018-08-28T08:01:10.725Z,29.90
2018-08-28T08:03:51.397Z,30.10
2018-08-28T08:06:32.655Z,30.40
2018-08-28T08:09:13.377Z,30.70
2018-08-28T08:11:53.896Z,30.90
2018-08-28T08:14:34.462Z,31.20
2018-08-28T08:17:16.890Z,31.30
2018-08-28T08:19:57.515Z,31.60
2018-08-28T08:22:38.178Z,31.90
2018-08-28T08:25:19.671Z,32.20
2018-08-28T08:28:01.323Z,32.40
2018-08-28T08:30:41.837Z,32.70
2018-08-28T08:33:22.498Z,33.10
2018-08-28T08:36:03.053Z,33.20
2018-08-28T08:38:43.626Z,33.40
2018-08-28T08:41:24.245Z,33.50
2018-08-28T08:44:04.921Z,33.60
2018-08-28T08:46:45.521Z,33.70
2018-08-28T08:49:26.180Z,33.60
2018-08-28T08:52:07.598Z,33.50
2018-08-28T08:54:48.196Z,33.40
2018-08-28T08:57:29.618Z,33.30
2018-08-28T09:00:10.285Z,33.30
2018-08-28T09:02:51.719Z,33.20
2018-08-28T09:05:32.358Z,33.10
2018-08-28T09:08:12.966Z,33.00
2018-08-28T09:10:53.660Z,32.80
2018-08-28T09:13:34.542Z,32.60
2018-08-28T09:16:16.157Z,32.40
2018-08-28T09:18:57.941Z,32.10
2018-08-28T09:21:38.957Z,32.00
2018-08-28T09:24:19.590Z,31.80
2018-08-28T09:27:00.598Z,31.70
2018-08-28T09:29:41.807Z,31.50
2018-08-28T09:32:23.300Z,31.40
2018-08-28T09:35:04.834Z,31.40
2018-08-28T09:37:46.308Z,31.50
2018-08-28T09:40:27.755Z,31.70
2018-08-28T09:43:08.368Z,31.90
2018-08-28T09:45:49.794Z,32.20
2018-08-28T09:48:30.368Z,32.50
2018-08-28T09:51:11.246Z,32.80
2018-08-28T09:53:52.396Z,33.00
2018-08-28T09:56:32.981Z,33.10
2018-08-28T09:59:14.313Z,33.10
2018-08-28T10:01:55.189Z,33.00
2018-08-28T10:04:36.661Z,32.90
2018-08-28T10:07:17.267Z,32.80
2018-08-28T10:09:57.774Z,32.90
2018-08-28T10:12:38.431Z,32.90
2018-08-28T10:15:19.042Z,33.00
2018-08-28T10:18:00.467Z,33.00
2018-08-28T10:20:41.021Z,33.00
2018-08-28T10:23:22.528Z,33.10
2018-08-28T10:26:03.882Z,33.20
2018-08-28T10:28:44.564Z,33.30
2018-08-28T10:31:25.583Z,33.30
2018-08-28T10:34:06.482Z,33.30
2018-08-28T10:36:47.945Z,33.20
2018-08-28T10:39:28.471Z,33.20
2018-08-28T10:42:09.229Z,33.30
2018-08-28T10:44:49.802Z,33.30
2018-08-28T10:47:30.550Z,33.30
2018-08-28T10:50:11.891Z,33.40
2018-08-28T10:52:52.536Z,33.50
2018-08-28T10:55:33.353Z,33.50
2018-08-28T10:58:14.919Z,33.40
2018-08-28T11:00:55.427Z,33.30
2018-08-28T11:03:35.927Z,33.30
2018-08-28T11:06:16.753Z,33.20
2018-08-28T11:08:58.148Z,33.10
2018-08-28T11:11:38.772Z,33.00
2018-08-28T11:14:19.484Z,32.90
2018-08-28T11:17:00.022Z,32.90
2018-08-28T11:19:40.830Z,32.90
2018-08-28T11:22:22.367Z,32.80
2018-08-28T11:25:03.974Z,32.80
2018-08-28T11:27:45.131Z,32.80
2018-08-28T11:30:26.065Z,32.80
2018-08-28T11:33:07.469Z,32.80
2018-08-28T11:35:48.088Z,32.80
2018-08-28T11:38:29.733Z,32.80
2018-08-28T11:41:10.275Z,32.90
2018-08-28T11:43:50.918Z,32.90
2018-08-28T11:46:31.556Z,33.00
2018-08-28T11:49:12.497Z,33.10
2018-08-28T11:51:54.181Z,33.10
2018-08-28T11:54:35.271Z,33.30
2018-08-28T11:57:16.064Z,33.30
2018-08-28T11:59:57.485Z,33.30
2018-08-28T12:02:38.053Z,33.20
2018-08-28T12:05:18.724Z,32.90
2018-08-28T12:08:00.311Z,32.80
2018-08-28T12:10:41.711Z,32.60
2018-08-28T12:13:23.205Z,32.50
2018-08-28T12:16:03.862Z,32.40
2018-08-28T12:18:44.445Z,32.40
2018-08-28T12:24:42.384Z,32.50
2018-08-28T12:27:23.505Z,32.60
2018-08-28T12:30:04.143Z,32.60
2018-08-28T12:32:45.522Z,32.60
2018-08-28T12:35:26.289Z,32.60
2018-08-28T12:38:07.016Z,32.60
2018-08-28T12:40:47.671Z,32.60
2018-08-28T12:43:29.141Z,32.60
2018-08-28T12:46:09.995Z,32.40
2018-08-28T12:48:51.465Z,32.20
2018-08-28T12:51:32.630Z,32.00
2018-08-28T12:54:13.667Z,31.80
2018-08-28T12:56:55.137Z,31.80
2018-08-28T12:59:35.870Z,31.80
2018-08-28T13:02:16.716Z,31.90
2018-08-28T13:04:57.200Z,32.00
2018-08-28T13:07:38.033Z,32.20
2018-08-28T13:10:18.543Z,32.30
2018-08-28T13:12:59.206Z,32.40
2018-08-28T13:15:39.874Z,32.50
2018-08-28T13:18:20.720Z,32.60
2018-08-28T13:21:02.294Z,32.60
2018-08-28T13:23:43.786Z,32.50
2018-08-28T13:26:25.274Z,32.40
2018-08-28T13:29:05.880Z,32.40
2018-08-28T13:31:46.427Z,32.40
2018-08-28T13:34:27.038Z,32.40
2018-08-28T13:37:07.797Z,32.50
2018-08-28T13:39:49.250Z,32.50
2018-08-28T13:42:30.004Z,32.60
2018-08-28T13:45:10.689Z,32.60
2018-08-28T13:47:51.639Z,32.60
2018-08-28T13:50:32.948Z,32.60
2018-08-28T13:53:14.494Z,32.60
2018-08-28T13:55:55.034Z,32.60
2018-08-28T13:58:35.750Z,32.50
2018-08-28T14:01:16.345Z,32.40
2018-08-28T14:03:58.712Z,32.40
2018-08-28T14:06:39.422Z,32.30
2018-08-28T14:09:20.009Z,32.10
2018-08-28T14:12:00.703Z,32.10
2018-08-28T14:14:42.233Z,32.00
2018-08-28T14:17:23.757Z,31.80
2018-08-28T14:20:05.226Z,31.80
2018-08-28T14:22:45.800Z,31.70
2018-08-28T14:25:27.624Z,31.50
2018-08-28T14:28:09.245Z,31.40
2018-08-28T14:30:51.828Z,31.30
2018-08-28T14:33:32.517Z,31.30
2018-08-28T14:36:13.136Z,31.30
2018-08-28T14:38:54.594Z,31.20
2018-08-28T14:41:35.137Z,31.10
2018-08-28T14:44:15.803Z,31.00
2018-08-28T14:46:57.405Z,30.90
2018-08-28T14:49:38.914Z,30.70
2018-08-28T14:52:19.459Z,30.60
2018-08-28T14:55:00.425Z,30.40
2018-08-28T14:57:42.377Z,30.10
2018-08-28T15:00:23.373Z,29.90
2018-08-28T15:03:03.997Z,29.70
2018-08-28T15:05:44.706Z,29.60
2018-08-28T15:08:26.266Z,29.30
2018-08-28T15:11:06.960Z,29.30
2018-08-28T15:13:48.530Z,29.20
2018-08-28T15:16:30.196Z,29.10
2018-08-28T15:19:12.517Z,29.10
2018-08-28T15:21:53.173Z,28.90
2018-08-28T15:24:33.768Z,28.90
2018-08-28T15:27:14.546Z,28.80
2018-08-28T15:29:55.080Z,28.90
2018-08-28T15:32:36.651Z,28.80
2018-08-28T15:35:18.132Z,28.70
2018-08-28T15:37:59.794Z,28.70
2018-08-28T15:40:41.377Z,28.80
2018-08-28T15:43:21.890Z,28.80
2018-08-28T15:46:02.581Z,28.80
2018-08-28T15:48:44.149Z,28.70
2018-08-28T15:51:24.948Z,28.60
2018-08-28T15:54:06.438Z,28.70
2018-08-28T15:56:47.904Z,28.60
2018-08-28T15:59:30.223Z,28.60
2018-08-28T16:02:11.722Z,28.60
2018-08-28T16:04:52.737Z,28.50
2018-08-28T16:07:34.233Z,28.50
2018-08-28T16:10:15.661Z,28.50
2018-08-28T16:12:57.152Z,28.50
2018-08-28T16:15:37.757Z,28.50
2018-08-28T16:18:18.298Z,28.50
2018-08-28T16:20:59.298Z,28.40
2018-08-28T16:23:43.107Z,28.40
2018-08-28T16:26:24.160Z,28.40
2018-08-28T16:29:04.701Z,28.40
2018-08-28T16:31:45.325Z,28.30
2018-08-28T16:34:26.810Z,28.30
2018-08-28T16:37:07.509Z,28.30
2018-08-28T16:39:47.970Z,28.20
2018-08-28T16:42:28.637Z,28.20
2018-08-28T16:45:10.217Z,28.10
2018-08-28T16:47:50.761Z,28.00
2018-08-28T16:50:31.396Z,27.90
2018-08-28T16:53:12.053Z,27.70
2018-08-28T16:55:52.664Z,27.70
2018-08-28T16:58:34.123Z,27.70
2018-08-28T17:01:14.811Z,27.70
2018-08-28T17:03:55.444Z,27.60
2018-08-28T17:06:36.809Z,27.70
2018-08-28T17:09:17.377Z,27.60
2018-08-28T17:11:58.012Z,27.70
2018-08-28T17:14:38.710Z,27.70
2018-08-28T17:17:20.261Z,27.70
2018-08-28T17:20:00.785Z,27.70
2018-08-28T17:22:41.509Z,27.70
2018-08-28T17:25:22.925Z,27.80
2018-08-28T17:28:03.664Z,27.80
2018-08-28T17:30:45.218Z,27.60
2018-08-28T17:33:26.757Z,27.50
2018-08-28T17:36:07.593Z,27.50
2018-08-28T17:38:49.123Z,27.40
2018-08-28T17:41:29.787Z,27.40
2018-08-28T17:44:10.450Z,27.30
2018-08-28T17:46:51.938Z,27.20
2018-08-28T17:49:32.529Z,27.20
2018-08-28T17:52:13.273Z,27.30
2018-08-28T17:54:53.932Z,27.20
2018-08-28T17:57:34.501Z,27.30
2018-08-28T18:00:15.149Z,27.30
2018-08-28T18:02:56.500Z,27.20
2018-08-28T18:05:37.189Z,27.20
2018-08-28T18:08:17.834Z,27.10
2018-08-28T18:10:58.487Z,27.20
2018-08-28T18:13:39.093Z,27.30
2018-08-28T18:16:19.845Z,27.40
2018-08-28T18:19:01.903Z,27.30
2018-08-28T18:21:42.973Z,27.20
2018-08-28T18:24:23.632Z,27.20
2018-08-28T18:27:05.139Z,27.10
2018-08-28T18:29:45.989Z,27.00
2018-08-28T18:32:27.274Z,26.90
2018-08-28T18:35:07.894Z,26.90
2018-08-28T18:37:49.960Z,26.90
2018-08-28T18:40:31.149Z,26.90
2018-08-28T18:43:13.114Z,26.90
2018-08-28T18:45:54.218Z,26.90
2018-08-28T18:48:34.981Z,26.80
2018-08-28T18:51:16.391Z,26.70
2018-08-28T18:53:58.593Z,26.70
2018-08-28T18:56:39.546Z,26.70
2018-08-28T18:59:21.045Z,26.70
2018-08-28T19:02:01.643Z,26.70
2018-08-28T19:04:42.373Z,26.70
2018-08-28T19:07:23.925Z,26.60
2018-08-28T19:10:04.594Z,26.60
2018-08-28T19:12:45.213Z,26.60
2018-08-28T19:15:25.830Z,26.60
2018-08-28T19:18:06.455Z,26.60
2018-08-28T19:20:47.129Z,26.60
2018-08-28T19:23:27.797Z,26.50
2018-08-28T19:26:08.608Z,26.60
2018-08-28T19:28:49.159Z,26.60
2018-08-28T19:31:30.665Z,26.70
2018-08-28T19:34:11.659Z,26.60
2018-08-28T19:36:53.724Z,26.60
2018-08-28T19:39:34.697Z,26.60
2018-08-28T19:42:16.428Z,26.60
2018-08-28T19:44:57.829Z,26.60
2018-08-28T19:47:39.501Z,26.60
2018-08-28T19:50:20.938Z,26.60
2018-08-28T19:53:01.606Z,26.60
2018-08-28T19:55:42.171Z,26.60
2018-08-28T19:58:23.113Z,26.60
2018-08-28T20:01:04.647Z,26.60
2018-08-28T20:03:46.006Z,26.60
2018-08-28T20:06:27.722Z,26.60
2018-08-28T20:09:09.165Z,26.70
2018-08-28T20:11:50.579Z,26.60
2018-08-28T20:14:31.978Z,26.60
2018-08-28T20:17:12.700Z,26.50
2018-08-28T20:19:53.373Z,26.50
2018-08-28T20:22:34.026Z,26.50
2018-08-28T20:25:15.510Z,26.60
2018-08-28T20:27:57.006Z,26.60
2018-08-28T20:30:38.542Z,26.60
2018-08-28T20:33:20.019Z,26.50
2018-08-28T20:36:00.681Z,26.60
2018-08-28T20:38:42.156Z,26.60
2018-08-28T20:41:23.184Z,26.50
2018-08-28T20:44:04.426Z,26.60
2018-08-28T20:46:44.978Z,26.60
2018-08-28T20:49:25.625Z,26.60
2018-08-28T20:52:06.406Z,26.50
2018-08-28T20:54:47.872Z,26.50
2018-08-28T20:57:29.425Z,26.50
2018-08-28T21:00:10.854Z,26.40
2018-08-28T21:02:51.548Z,26.40
2018-08-28T21:05:32.129Z,26.40
2018-08-28T21:08:12.677Z,26.40
2018-08-28T21:10:53.402Z,26.30
2018-08-28T21:13:33.989Z,26.30
2018-08-28T21:16:14.550Z,26.40
2018-08-28T21:18:55.188Z,26.40
2018-08-28T21:21:37.102Z,26.40
2018-08-28T21:24:18.300Z,26.40
2018-08-28T21:26:58.907Z,26.30
2018-08-28T21:29:39.507Z,26.30
2018-08-28T21:32:20.053Z,26.40
2018-08-28T21:35:00.790Z,26.30
2018-08-28T21:37:41.533Z,26.30
2018-08-28T21:40:22.966Z,26.30
2018-08-28T21:43:04.869Z,26.30
2018-08-28T21:45:46.415Z,26.30
2018-08-28T21:48:27.947Z,26.20
2018-08-28T21:51:08.633Z,26.20
2018-08-28T21:53:50.186Z,26.10
2018-08-28T21:56:31.663Z,26.00
2018-08-28T21:59:12.250Z,25.90
2018-08-28T22:01:52.843Z,25.70
2018-08-28T22:04:34.326Z,25.70
2018-08-28T22:07:20.634Z,25.70
2018-08-28T22:10:01.276Z,25.70
2018-08-28T22:12:42.736Z,25.70
2018-08-28T22:15:23.452Z,25.70
2018-08-28T22:18:04.104Z,25.80
2018-08-28T22:20:49.705Z,25.80
2018-08-28T22:23:30.289Z,25.70
2018-08-28T22:26:10.925Z,25.70
2018-08-28T22:28:51.641Z,25.80
2018-08-28T22:31:32.215Z,25.80
2018-08-28T22:34:12.897Z,25.70
2018-08-28T22:36:53.453Z,25.70
2018-08-28T22:39:35.234Z,25.70
2018-08-28T22:42:16.477Z,25.70
2018-08-28T22:44:57.923Z,25.80
2018-08-28T22:47:38.557Z,25.80
2018-08-28T22:50:20.063Z,25.80
2018-08-28T22:53:01.028Z,25.80
2018-08-28T22:55:42.348Z,25.90
2018-08-28T22:58:23.806Z,25.90
2018-08-28T23:01:05.041Z,26.00
2018-08-28T23:03:46.301Z,25.90
2018-08-28T23:06:27.821Z,26.00
2018-08-28T23:09:09.594Z,26.00
2018-08-28T23:11:50.756Z,26.00
2018-08-28T23:14:31.392Z,26.00
2018-08-28T23:17:12.038Z,26.00
2018-08-28T23:19:53.489Z,26.10
2018-08-28T23:22:34.222Z,26.00
2018-08-28T23:25:15.686Z,26.00
2018-08-28T23:27:56.414Z,26.00
2018-08-28T23:30:37.422Z,26.00
2018-08-28T23:33:18.561Z,26.00
2018-08-28T23:36:00.244Z,26.10
2018-08-28T23:38:41.729Z,26.10
2018-08-28T23:41:22.309Z,26.00
2018-08-28T23:44:03.032Z,26.10
2018-08-28T23:46:44.429Z,26.00
2018-08-28T23:49:25.037Z,26.00
2018-08-28T23:52:05.784Z,26.00
2018-08-28T23:54:47.764Z,25.90
2018-08-28T23:57:28.769Z,25.90
